sensor_id;sensor_type;location;lat;lon;timestamp;temperature;humidity
68977;SHT31;56029;52.568;13.588;2023-12-28T00:00:37;3.78;99.35
68977;SHT31;56029;52.568;13.588;2023-12-28T00:03:25;3.78;99.43
68977;SHT31;56029;52.568;13.588;2023-12-28T00:05:50;3.75;99.40
68977;SHT31;56029;52.568;13.588;2023-12-28T00:08:16;3.73;99.38
68977;SHT31;56029;52.568;13.588;2023-12-28T00:10:41;3.73;99.46
68977;SHT31;56029;52.568;13.588;2023-12-28T00:13:08;3.70;99.55
68977;SHT31;56029;52.568;13.588;2023-12-28T00:15:34;3.70;99.56
68977;SHT31;56029;52.568;13.588;2023-12-28T00:17:59;3.73;99.62
68977;SHT31;56029;52.568;13.588;2023-12-28T00:20:25;3.75;99.47
68977;SHT31;56029;52.568;13.588;2023-12-28T00:22:51;3.75;99.52
68977;SHT31;56029;52.568;13.588;2023-12-28T00:25:16;3.78;99.32
68977;SHT31;56029;52.568;13.588;2023-12-28T00:27:42;3.85;99.20
68977;SHT31;56029;52.568;13.588;2023-12-28T00:30:10;3.82;99.21
68977;SHT31;56029;52.568;13.588;2023-12-28T00:32:36;3.87;98.92
68977;SHT31;56029;52.568;13.588;2023-12-28T00:35:02;3.86;98.88
68977;SHT31;56029;52.568;13.588;2023-12-28T00:37:27;3.87;98.93
68977;SHT31;56029;52.568;13.588;2023-12-28T00:39:53;3.87;98.75
68977;SHT31;56029;52.568;13.588;2023-12-28T00:42:18;3.86;98.67
68977;SHT31;56029;52.568;13.588;2023-12-28T00:44:44;3.89;98.53
68977;SHT31;56029;52.568;13.588;2023-12-28T00:47:10;3.93;98.51
68977;SHT31;56029;52.568;13.588;2023-12-28T00:49:35;3.97;98.46
68977;SHT31;56029;52.568;13.588;2023-12-28T00:52:01;4.00;98.14
68977;SHT31;56029;52.568;13.588;2023-12-28T00:54:26;4.03;98.15
68977;SHT31;56029;52.568;13.588;2023-12-28T00:56:52;4.06;97.92
68977;SHT31;56029;52.568;13.588;2023-12-28T00:59:17;4.01;98.01
68977;SHT31;56029;52.568;13.588;2023-12-28T01:01:43;4.07;97.65
68977;SHT31;56029;52.568;13.588;2023-12-28T01:04:09;4.03;97.73
68977;SHT31;56029;52.568;13.588;2023-12-28T01:06:35;4.11;97.74
68977;SHT31;56029;52.568;13.588;2023-12-28T01:09:00;4.07;97.73
68977;SHT31;56029;52.568;13.588;2023-12-28T01:11:26;4.11;97.39
68977;SHT31;56029;52.568;13.588;2023-12-28T01:13:51;4.10;97.41
68977;SHT31;56029;52.568;13.588;2023-12-28T01:16:17;4.10;97.45
68977;SHT31;56029;52.568;13.588;2023-12-28T01:18:43;4.06;97.46
68977;SHT31;56029;52.568;13.588;2023-12-28T01:21:08;4.06;97.51
68977;SHT31;56029;52.568;13.588;2023-12-28T01:23:34;4.07;97.30
68977;SHT31;56029;52.568;13.588;2023-12-28T01:26:00;4.04;97.37
68977;SHT31;56029;52.568;13.588;2023-12-28T01:28:25;4.08;97.19
68977;SHT31;56029;52.568;13.588;2023-12-28T01:30:51;4.07;97.20
68977;SHT31;56029;52.568;13.588;2023-12-28T01:33:16;4.11;97.13
68977;SHT31;56029;52.568;13.588;2023-12-28T01:35:42;4.07;97.11
68977;SHT31;56029;52.568;13.588;2023-12-28T01:38:08;4.03;97.16
68977;SHT31;56029;52.568;13.588;2023-12-28T01:40:34;4.00;97.21
68977;SHT31;56029;52.568;13.588;2023-12-28T01:43:00;3.99;97.31
68977;SHT31;56029;52.568;13.588;2023-12-28T01:45:26;3.97;97.23
68977;SHT31;56029;52.568;13.588;2023-12-28T01:47:53;3.97;97.20
68977;SHT31;56029;52.568;13.588;2023-12-28T01:50:20;3.97;97.30
68977;SHT31;56029;52.568;13.588;2023-12-28T01:52:46;3.96;97.37
68977;SHT31;56029;52.568;13.588;2023-12-28T01:55:13;3.91;97.47
68977;SHT31;56029;52.568;13.588;2023-12-28T01:57:39;3.91;97.34
68977;SHT31;56029;52.568;13.588;2023-12-28T02:00:06;3.93;97.27
68977;SHT31;56029;52.568;13.588;2023-12-28T02:02:32;3.91;97.32
68977;SHT31;56029;52.568;13.588;2023-12-28T02:04:58;3.96;97.29
68977;SHT31;56029;52.568;13.588;2023-12-28T02:07:24;3.94;97.27
68977;SHT31;56029;52.568;13.588;2023-12-28T02:09:49;3.97;97.01
68977;SHT31;56029;52.568;13.588;2023-12-28T02:12:15;3.90;97.12
68977;SHT31;56029;52.568;13.588;2023-12-28T02:14:41;3.97;97.24
68977;SHT31;56029;52.568;13.588;2023-12-28T02:17:16;4.01;97.09
68977;SHT31;56029;52.568;13.588;2023-12-28T02:19:56;4.08;96.56
68977;SHT31;56029;52.568;13.588;2023-12-28T02:22:25;4.16;96.27
68977;SHT31;56029;52.568;13.588;2023-12-28T02:27:42;4.33;95.65
68977;SHT31;56029;52.568;13.588;2023-12-28T02:30:09;4.34;95.51
68977;SHT31;56029;52.568;13.588;2023-12-28T02:35:19;4.49;95.14
68977;SHT31;56029;52.568;13.588;2023-12-28T02:37:51;4.55;94.82
68977;SHT31;56029;52.568;13.588;2023-12-28T02:40:20;4.65;94.31
68977;SHT31;56029;52.568;13.588;2023-12-28T02:42:46;4.71;94.42
68977;SHT31;56029;52.568;13.588;2023-12-28T02:45:12;4.79;94.41
68977;SHT31;56029;52.568;13.588;2023-12-28T02:47:37;4.89;93.65
68977;SHT31;56029;52.568;13.588;2023-12-28T02:50:03;4.90;93.50
68977;SHT31;56029;52.568;13.588;2023-12-28T02:52:29;4.97;93.07
68977;SHT31;56029;52.568;13.588;2023-12-28T02:54:55;5.06;92.72
68977;SHT31;56029;52.568;13.588;2023-12-28T02:57:20;5.13;92.34
68977;SHT31;56029;52.568;13.588;2023-12-28T02:59:46;5.20;92.16
68977;SHT31;56029;52.568;13.588;2023-12-28T03:02:11;5.26;92.19
68977;SHT31;56029;52.568;13.588;2023-12-28T03:04:37;5.36;91.21
68977;SHT31;56029;52.568;13.588;2023-12-28T03:07:02;5.41;91.04
68977;SHT31;56029;52.568;13.588;2023-12-28T03:09:28;5.50;90.65
68977;SHT31;56029;52.568;13.588;2023-12-28T03:11:55;5.59;89.88
68977;SHT31;56029;52.568;13.588;2023-12-28T03:14:21;5.68;89.14
68977;SHT31;56029;52.568;13.588;2023-12-28T03:16:46;5.79;88.67
68977;SHT31;56029;52.568;13.588;2023-12-28T03:19:12;5.91;87.96
68977;SHT31;56029;52.568;13.588;2023-12-28T03:21:41;6.02;87.75
68977;SHT31;56029;52.568;13.588;2023-12-28T03:24:06;6.16;86.52
68977;SHT31;56029;52.568;13.588;2023-12-28T03:26:32;6.26;86.55
68977;SHT31;56029;52.568;13.588;2023-12-28T03:29:00;6.45;85.48
68977;SHT31;56029;52.568;13.588;2023-12-28T03:31:26;6.45;85.88
68977;SHT31;56029;52.568;13.588;2023-12-28T03:33:52;6.53;85.58
68977;SHT31;56029;52.568;13.588;2023-12-28T03:36:20;6.63;84.77
68977;SHT31;56029;52.568;13.588;2023-12-28T03:38:46;6.77;84.05
68977;SHT31;56029;52.568;13.588;2023-12-28T03:41:21;6.94;82.76
68977;SHT31;56029;52.568;13.588;2023-12-28T03:43:47;6.99;82.97
68977;SHT31;56029;52.568;13.588;2023-12-28T03:46:12;7.06;82.45
68977;SHT31;56029;52.568;13.588;2023-12-28T03:48:39;7.09;83.02
68977;SHT31;56029;52.568;13.588;2023-12-28T03:51:04;7.11;83.30
68977;SHT31;56029;52.568;13.588;2023-12-28T03:53:30;7.12;83.25
68977;SHT31;56029;52.568;13.588;2023-12-28T03:55:59;7.18;83.31
68977;SHT31;56029;52.568;13.588;2023-12-28T03:58:25;7.16;83.99
68977;SHT31;56029;52.568;13.588;2023-12-28T04:00:53;7.15;84.40
68977;SHT31;56029;52.568;13.588;2023-12-28T04:03:19;7.08;86.38
68977;SHT31;56029;52.568;13.588;2023-12-28T04:05:44;7.09;85.57
68977;SHT31;56029;52.568;13.588;2023-12-28T04:08:10;7.06;85.25
68977;SHT31;56029;52.568;13.588;2023-12-28T04:10:36;7.03;85.77
68977;SHT31;56029;52.568;13.588;2023-12-28T04:13:01;6.96;87.11
68977;SHT31;56029;52.568;13.588;2023-12-28T04:15:27;6.95;86.93
68977;SHT31;56029;52.568;13.588;2023-12-28T04:17:53;7.09;85.36
68977;SHT31;56029;52.568;13.588;2023-12-28T04:20:21;7.11;85.98
68977;SHT31;56029;52.568;13.588;2023-12-28T04:22:46;7.11;86.31
68977;SHT31;56029;52.568;13.588;2023-12-28T04:25:12;7.15;85.43
68977;SHT31;56029;52.568;13.588;2023-12-28T04:27:38;7.20;84.43
68977;SHT31;56029;52.568;13.588;2023-12-28T04:30:05;7.19;85.51
68977;SHT31;56029;52.568;13.588;2023-12-28T04:32:33;7.24;84.49
68977;SHT31;56029;52.568;13.588;2023-12-28T04:34:59;7.27;84.94
68977;SHT31;56029;52.568;13.588;2023-12-28T04:37:25;7.33;84.50
68977;SHT31;56029;52.568;13.588;2023-12-28T04:39:50;7.33;84.25
68977;SHT31;56029;52.568;13.588;2023-12-28T04:42:16;7.30;84.62
68977;SHT31;56029;52.568;13.588;2023-12-28T04:44:41;7.32;84.46
68977;SHT31;56029;52.568;13.588;2023-12-28T04:47:07;7.32;85.02
68977;SHT31;56029;52.568;13.588;2023-12-28T04:49:32;7.33;84.19
68977;SHT31;56029;52.568;13.588;2023-12-28T04:51:58;7.33;84.48
68977;SHT31;56029;52.568;13.588;2023-12-28T04:54:23;7.32;84.62
68977;SHT31;56029;52.568;13.588;2023-12-28T04:56:49;7.30;84.31
68977;SHT31;56029;52.568;13.588;2023-12-28T04:59:14;7.46;83.27
68977;SHT31;56029;52.568;13.588;2023-12-28T05:01:41;7.50;83.06
68977;SHT31;56029;52.568;13.588;2023-12-28T05:04:07;7.46;83.11
68977;SHT31;56029;52.568;13.588;2023-12-28T05:06:34;7.47;83.00
68977;SHT31;56029;52.568;13.588;2023-12-28T05:08:59;7.54;82.80
68977;SHT31;56029;52.568;13.588;2023-12-28T05:11:25;7.59;82.33
68977;SHT31;56029;52.568;13.588;2023-12-28T05:13:50;7.59;81.98
68977;SHT31;56029;52.568;13.588;2023-12-28T05:16:16;7.61;82.28
68977;SHT31;56029;52.568;13.588;2023-12-28T05:18:41;7.57;82.35
68977;SHT31;56029;52.568;13.588;2023-12-28T05:21:07;7.47;82.92
68977;SHT31;56029;52.568;13.588;2023-12-28T05:23:36;7.50;82.78
68977;SHT31;56029;52.568;13.588;2023-12-28T05:26:01;7.43;82.62
68977;SHT31;56029;52.568;13.588;2023-12-28T05:28:27;7.46;82.41
68977;SHT31;56029;52.568;13.588;2023-12-28T05:30:52;7.44;82.42
68977;SHT31;56029;52.568;13.588;2023-12-28T05:33:18;7.54;81.89
68977;SHT31;56029;52.568;13.588;2023-12-28T05:35:43;7.46;82.44
68977;SHT31;56029;52.568;13.588;2023-12-28T05:38:09;7.44;82.40
68977;SHT31;56029;52.568;13.588;2023-12-28T05:40:35;7.42;82.32
68977;SHT31;56029;52.568;13.588;2023-12-28T05:43:00;7.42;82.83
68977;SHT31;56029;52.568;13.588;2023-12-28T05:45:26;7.53;81.87
68977;SHT31;56029;52.568;13.588;2023-12-28T05:47:51;7.44;82.22
68977;SHT31;56029;52.568;13.588;2023-12-28T05:50:17;7.43;82.51
68977;SHT31;56029;52.568;13.588;2023-12-28T05:52:42;7.43;82.54
68977;SHT31;56029;52.568;13.588;2023-12-28T05:55:08;7.47;82.35
68977;SHT31;56029;52.568;13.588;2023-12-28T05:57:33;7.50;82.55
68977;SHT31;56029;52.568;13.588;2023-12-28T05:59:59;7.42;83.01
68977;SHT31;56029;52.568;13.588;2023-12-28T06:02:24;7.37;83.35
68977;SHT31;56029;52.568;13.588;2023-12-28T06:04:50;7.33;83.66
68977;SHT31;56029;52.568;13.588;2023-12-28T06:07:15;7.32;84.19
68977;SHT31;56029;52.568;13.588;2023-12-28T06:09:41;7.27;84.14
68977;SHT31;56029;52.568;13.588;2023-12-28T06:12:07;7.24;84.47
68977;SHT31;56029;52.568;13.588;2023-12-28T06:14:32;7.32;84.73
68977;SHT31;56029;52.568;13.588;2023-12-28T06:16:58;7.49;84.93
68977;SHT31;56029;52.568;13.588;2023-12-28T06:19:24;7.50;85.20
68977;SHT31;56029;52.568;13.588;2023-12-28T06:21:50;7.63;85.10
68977;SHT31;56029;52.568;13.588;2023-12-28T06:24:16;7.88;84.98
68977;SHT31;56029;52.568;13.588;2023-12-28T06:26:42;7.95;84.81
68977;SHT31;56029;52.568;13.588;2023-12-28T06:29:10;7.99;85.28
68977;SHT31;56029;52.568;13.588;2023-12-28T06:31:36;8.01;85.70
68977;SHT31;56029;52.568;13.588;2023-12-28T06:34:06;7.95;86.02
68977;SHT31;56029;52.568;13.588;2023-12-28T06:36:31;8.03;85.85
68977;SHT31;56029;52.568;13.588;2023-12-28T06:38:58;8.09;85.93
68977;SHT31;56029;52.568;13.588;2023-12-28T06:41:27;8.16;85.92
68977;SHT31;56029;52.568;13.588;2023-12-28T06:43:52;8.05;86.81
68977;SHT31;56029;52.568;13.588;2023-12-28T06:46:18;7.94;87.17
68977;SHT31;56029;52.568;13.588;2023-12-28T06:48:44;7.90;87.34
68977;SHT31;56029;52.568;13.588;2023-12-28T06:51:15;8.06;86.82
68977;SHT31;56029;52.568;13.588;2023-12-28T06:53:41;8.09;87.04
68977;SHT31;56029;52.568;13.588;2023-12-28T06:56:06;8.24;86.50
68977;SHT31;56029;52.568;13.588;2023-12-28T06:58:32;8.15;87.03
68977;SHT31;56029;52.568;13.588;2023-12-28T07:00:57;8.08;87.43
68977;SHT31;56029;52.568;13.588;2023-12-28T07:03:23;8.02;87.67
68977;SHT31;56029;52.568;13.588;2023-12-28T07:05:48;8.06;87.53
68977;SHT31;56029;52.568;13.588;2023-12-28T07:08:14;8.02;87.44
68977;SHT31;56029;52.568;13.588;2023-12-28T07:10:40;8.02;87.74
68977;SHT31;56029;52.568;13.588;2023-12-28T07:13:05;8.06;87.62
68977;SHT31;56029;52.568;13.588;2023-12-28T07:15:31;8.06;87.63
68977;SHT31;56029;52.568;13.588;2023-12-28T07:17:56;8.08;87.66
68977;SHT31;56029;52.568;13.588;2023-12-28T07:20:22;8.11;87.78
68977;SHT31;56029;52.568;13.588;2023-12-28T07:22:47;8.06;88.00
68977;SHT31;56029;52.568;13.588;2023-12-28T07:25:13;8.12;87.66
68977;SHT31;56029;52.568;13.588;2023-12-28T07:27:39;8.09;87.93
68977;SHT31;56029;52.568;13.588;2023-12-28T07:30:05;8.09;88.00
68977;SHT31;56029;52.568;13.588;2023-12-28T07:32:31;8.06;88.24
68977;SHT31;56029;52.568;13.588;2023-12-28T07:34:56;8.02;88.39
68977;SHT31;56029;52.568;13.588;2023-12-28T07:37:22;7.94;88.61
68977;SHT31;56029;52.568;13.588;2023-12-28T07:39:47;7.97;88.55
68977;SHT31;56029;52.568;13.588;2023-12-28T07:42:13;7.84;89.06
68977;SHT31;56029;52.568;13.588;2023-12-28T07:44:38;7.85;89.04
68977;SHT31;56029;52.568;13.588;2023-12-28T07:47:04;7.85;89.30
68977;SHT31;56029;52.568;13.588;2023-12-28T07:49:30;7.80;89.47
68977;SHT31;56029;52.568;13.588;2023-12-28T07:51:56;7.80;89.56
68977;SHT31;56029;52.568;13.588;2023-12-28T07:54:22;7.77;89.82
68977;SHT31;56029;52.568;13.588;2023-12-28T07:56:48;7.88;89.57
68977;SHT31;56029;52.568;13.588;2023-12-28T07:59:13;7.91;89.57
68977;SHT31;56029;52.568;13.588;2023-12-28T08:01:39;7.94;89.53
68977;SHT31;56029;52.568;13.588;2023-12-28T08:04:04;7.97;89.46
68977;SHT31;56029;52.568;13.588;2023-12-28T08:06:31;8.06;89.30
68977;SHT31;56029;52.568;13.588;2023-12-28T08:08:57;8.03;89.47
68977;SHT31;56029;52.568;13.588;2023-12-28T08:11:22;8.02;89.55
68977;SHT31;56029;52.568;13.588;2023-12-28T08:13:48;8.13;89.24
68977;SHT31;56029;52.568;13.588;2023-12-28T08:16:13;8.11;89.50
68977;SHT31;56029;52.568;13.588;2023-12-28T08:18:39;8.19;89.35
68977;SHT31;56029;52.568;13.588;2023-12-28T08:21:05;8.30;88.78
68977;SHT31;56029;52.568;13.588;2023-12-28T08:23:30;8.32;89.16
68977;SHT31;56029;52.568;13.588;2023-12-28T08:25:56;8.35;88.96
68977;SHT31;56029;52.568;13.588;2023-12-28T08:28:21;8.32;88.95
68977;SHT31;56029;52.568;13.588;2023-12-28T08:30:47;8.32;89.02
68977;SHT31;56029;52.568;13.588;2023-12-28T08:33:12;8.33;88.84
68977;SHT31;56029;52.568;13.588;2023-12-28T08:35:38;8.35;88.83
68977;SHT31;56029;52.568;13.588;2023-12-28T08:38:03;8.33;88.96
68977;SHT31;56029;52.568;13.588;2023-12-28T08:40:29;8.32;89.22
68977;SHT31;56029;52.568;13.588;2023-12-28T08:42:54;8.46;88.47
68977;SHT31;56029;52.568;13.588;2023-12-28T08:45:20;8.40;88.77
68977;SHT31;56029;52.568;13.588;2023-12-28T08:47:45;8.53;87.86
68977;SHT31;56029;52.568;13.588;2023-12-28T08:50:11;8.53;88.21
68977;SHT31;56029;52.568;13.588;2023-12-28T08:52:36;8.50;88.42
68977;SHT31;56029;52.568;13.588;2023-12-28T08:55:03;8.52;87.98
68977;SHT31;56029;52.568;13.588;2023-12-28T08:57:29;8.48;88.49
68977;SHT31;56029;52.568;13.588;2023-12-28T08:59:55;8.46;88.59
68977;SHT31;56029;52.568;13.588;2023-12-28T09:02:21;8.43;88.92
68977;SHT31;56029;52.568;13.588;2023-12-28T09:04:46;8.45;88.54
68977;SHT31;56029;52.568;13.588;2023-12-28T09:07:12;8.46;88.71
68977;SHT31;56029;52.568;13.588;2023-12-28T09:09:37;8.50;88.04
68977;SHT31;56029;52.568;13.588;2023-12-28T09:12:03;8.50;88.35
68977;SHT31;56029;52.568;13.588;2023-12-28T09:14:29;8.49;88.34
68977;SHT31;56029;52.568;13.588;2023-12-28T09:16:54;8.46;88.14
68977;SHT31;56029;52.568;13.588;2023-12-28T09:19:20;8.49;87.81
68977;SHT31;56029;52.568;13.588;2023-12-28T09:21:45;8.46;88.23
68977;SHT31;56029;52.568;13.588;2023-12-28T09:24:11;8.45;87.96
68977;SHT31;56029;52.568;13.588;2023-12-28T09:26:36;8.38;88.16
68977;SHT31;56029;52.568;13.588;2023-12-28T09:29:02;8.38;87.82
68977;SHT31;56029;52.568;13.588;2023-12-28T09:31:27;8.33;88.22
68977;SHT31;56029;52.568;13.588;2023-12-28T09:33:53;8.30;88.22
68977;SHT31;56029;52.568;13.588;2023-12-28T09:36:19;8.29;88.18
68977;SHT31;56029;52.568;13.588;2023-12-28T09:38:44;8.29;88.05
68977;SHT31;56029;52.568;13.588;2023-12-28T09:41:12;8.26;88.14
68977;SHT31;56029;52.568;13.588;2023-12-28T09:43:45;8.19;88.62
68977;SHT31;56029;52.568;13.588;2023-12-28T09:46:13;8.13;88.70
68977;SHT31;56029;52.568;13.588;2023-12-28T09:48:39;8.13;88.67
68977;SHT31;56029;52.568;13.588;2023-12-28T09:51:05;8.11;88.61
68977;SHT31;56029;52.568;13.588;2023-12-28T09:53:31;8.05;88.77
68977;SHT31;56029;52.568;13.588;2023-12-28T09:55:57;8.01;88.89
68977;SHT31;56029;52.568;13.588;2023-12-28T09:58:22;8.05;88.86
68977;SHT31;56029;52.568;13.588;2023-12-28T10:00:49;7.97;89.03
68977;SHT31;56029;52.568;13.588;2023-12-28T10:03:16;8.01;88.84
68977;SHT31;56029;52.568;13.588;2023-12-28T10:05:43;7.98;89.51
68977;SHT31;56029;52.568;13.588;2023-12-28T10:08:11;7.94;89.57
68977;SHT31;56029;52.568;13.588;2023-12-28T10:10:36;7.94;89.35
68977;SHT31;56029;52.568;13.588;2023-12-28T10:13:06;7.94;89.66
68977;SHT31;56029;52.568;13.588;2023-12-28T10:15:32;7.97;89.29
68977;SHT31;56029;52.568;13.588;2023-12-28T10:17:58;7.99;89.37
68977;SHT31;56029;52.568;13.588;2023-12-28T10:20:26;8.05;88.95
68977;SHT31;56029;52.568;13.588;2023-12-28T10:22:52;8.08;89.20
68977;SHT31;56029;52.568;13.588;2023-12-28T10:25:17;8.08;89.34
68977;SHT31;56029;52.568;13.588;2023-12-28T10:27:43;8.15;88.90
68977;SHT31;56029;52.568;13.588;2023-12-28T10:30:19;8.18;88.85
68977;SHT31;56029;52.568;13.588;2023-12-28T10:32:49;8.29;88.59
68977;SHT31;56029;52.568;13.588;2023-12-28T10:35:14;8.38;88.54
68977;SHT31;56029;52.568;13.588;2023-12-28T10:37:41;8.48;88.07
68977;SHT31;56029;52.568;13.588;2023-12-28T10:40:07;8.53;87.85
68977;SHT31;56029;52.568;13.588;2023-12-28T10:42:37;8.64;87.48
68977;SHT31;56029;52.568;13.588;2023-12-28T10:45:10;8.74;87.14
68977;SHT31;56029;52.568;13.588;2023-12-28T10:47:43;8.77;87.26
68977;SHT31;56029;52.568;13.588;2023-12-28T10:50:12;8.84;86.73
68977;SHT31;56029;52.568;13.588;2023-12-28T10:52:39;8.90;86.75
68977;SHT31;56029;52.568;13.588;2023-12-28T10:58:08;9.00;86.62
68977;SHT31;56029;52.568;13.588;2023-12-28T11:00:43;8.98;86.62
68977;SHT31;56029;52.568;13.588;2023-12-28T11:03:18;9.04;86.62
68977;SHT31;56029;52.568;13.588;2023-12-28T11:05:45;9.04;86.40
68977;SHT31;56029;52.568;13.588;2023-12-28T11:08:12;9.11;86.34
68977;SHT31;56029;52.568;13.588;2023-12-28T11:10:40;9.19;85.72
68977;SHT31;56029;52.568;13.588;2023-12-28T11:13:06;9.18;86.07
68977;SHT31;56029;52.568;13.588;2023-12-28T11:15:31;9.25;85.70
68977;SHT31;56029;52.568;13.588;2023-12-28T11:17:57;9.25;86.18
68977;SHT31;56029;52.568;13.588;2023-12-28T11:20:23;9.32;85.86
68977;SHT31;56029;52.568;13.588;2023-12-28T11:22:49;9.38;85.78
68977;SHT31;56029;52.568;13.588;2023-12-28T11:25:16;9.43;85.29
68977;SHT31;56029;52.568;13.588;2023-12-28T11:27:42;9.52;85.29
68977;SHT31;56029;52.568;13.588;2023-12-28T11:30:10;9.60;85.37
68977;SHT31;56029;52.568;13.588;2023-12-28T11:32:36;9.66;84.44
68977;SHT31;56029;52.568;13.588;2023-12-28T11:35:02;9.63;84.92
68977;SHT31;56029;52.568;13.588;2023-12-28T11:37:29;9.65;84.85
68977;SHT31;56029;52.568;13.588;2023-12-28T11:39:55;9.58;84.81
68977;SHT31;56029;52.568;13.588;2023-12-28T11:42:21;9.60;84.88
68977;SHT31;56029;52.568;13.588;2023-12-28T11:44:47;9.58;84.90
68977;SHT31;56029;52.568;13.588;2023-12-28T11:47:14;9.52;85.07
68977;SHT31;56029;52.568;13.588;2023-12-28T11:49:39;9.52;84.99
68977;SHT31;56029;52.568;13.588;2023-12-28T11:52:06;9.55;85.03
68977;SHT31;56029;52.568;13.588;2023-12-28T11:54:36;9.52;84.92
68977;SHT31;56029;52.568;13.588;2023-12-28T11:57:02;9.48;85.12
68977;SHT31;56029;52.568;13.588;2023-12-28T11:59:27;9.52;84.84
68977;SHT31;56029;52.568;13.588;2023-12-28T12:01:53;9.50;85.13
68977;SHT31;56029;52.568;13.588;2023-12-28T12:04:21;9.53;84.98
68977;SHT31;56029;52.568;13.588;2023-12-28T12:06:48;9.56;85.63
68977;SHT31;56029;52.568;13.588;2023-12-28T12:09:14;9.56;85.45
68977;SHT31;56029;52.568;13.588;2023-12-28T12:11:40;9.58;85.42
68977;SHT31;56029;52.568;13.588;2023-12-28T12:14:11;9.62;85.15
68977;SHT31;56029;52.568;13.588;2023-12-28T12:16:37;9.63;85.04
68977;SHT31;56029;52.568;13.588;2023-12-28T12:19:04;9.65;84.73
68977;SHT31;56029;52.568;13.588;2023-12-28T12:21:30;9.65;84.86
68977;SHT31;56029;52.568;13.588;2023-12-28T12:23:55;9.65;84.89
68977;SHT31;56029;52.568;13.588;2023-12-28T12:26:26;9.67;84.62
68977;SHT31;56029;52.568;13.588;2023-12-28T12:28:51;9.70;84.49
68977;SHT31;56029;52.568;13.588;2023-12-28T12:31:17;9.73;84.24
68977;SHT31;56029;52.568;13.588;2023-12-28T12:33:43;9.73;84.13
68977;SHT31;56029;52.568;13.588;2023-12-28T12:36:09;9.77;84.04
68977;SHT31;56029;52.568;13.588;2023-12-28T12:38:35;9.77;84.49
68977;SHT31;56029;52.568;13.588;2023-12-28T12:41:01;9.80;84.16
68977;SHT31;56029;52.568;13.588;2023-12-28T12:43:27;9.83;83.86
68977;SHT31;56029;52.568;13.588;2023-12-28T12:45:53;9.89;83.77
68977;SHT31;56029;52.568;13.588;2023-12-28T12:48:19;9.83;84.05
68977;SHT31;56029;52.568;13.588;2023-12-28T12:50:45;9.85;84.31
68977;SHT31;56029;52.568;13.588;2023-12-28T12:53:13;9.82;84.32
68977;SHT31;56029;52.568;13.588;2023-12-28T12:55:39;9.80;84.33
68977;SHT31;56029;52.568;13.588;2023-12-28T12:58:05;9.82;83.54
68977;SHT31;56029;52.568;13.588;2023-12-28T13:00:32;9.77;83.90
68977;SHT31;56029;52.568;13.588;2023-12-28T13:03:03;9.73;84.11
68977;SHT31;56029;52.568;13.588;2023-12-28T13:05:35;9.83;83.65
68977;SHT31;56029;52.568;13.588;2023-12-28T13:08:00;9.83;83.20
68977;SHT31;56029;52.568;13.588;2023-12-28T13:10:26;9.79;83.66
68977;SHT31;56029;52.568;13.588;2023-12-28T13:12:51;9.82;83.45
68977;SHT31;56029;52.568;13.588;2023-12-28T13:15:17;9.82;84.02
68977;SHT31;56029;52.568;13.588;2023-12-28T13:17:42;9.87;83.49
68977;SHT31;56029;52.568;13.588;2023-12-28T13:20:09;9.87;83.42
68977;SHT31;56029;52.568;13.588;2023-12-28T13:22:34;9.89;83.37
68977;SHT31;56029;52.568;13.588;2023-12-28T13:25:00;9.96;82.85
68977;SHT31;56029;52.568;13.588;2023-12-28T13:27:26;9.90;83.56
68977;SHT31;56029;52.568;13.588;2023-12-28T13:29:51;9.89;83.53
68977;SHT31;56029;52.568;13.588;2023-12-28T13:32:17;9.87;83.92
68977;SHT31;56029;52.568;13.588;2023-12-28T13:34:43;9.85;84.06
68977;SHT31;56029;52.568;13.588;2023-12-28T13:37:08;9.80;84.25
68977;SHT31;56029;52.568;13.588;2023-12-28T13:39:34;9.79;84.16
68977;SHT31;56029;52.568;13.588;2023-12-28T13:41:59;9.82;84.05
68977;SHT31;56029;52.568;13.588;2023-12-28T13:44:25;9.85;84.19
68977;SHT31;56029;52.568;13.588;2023-12-28T13:46:50;9.89;83.96
68977;SHT31;56029;52.568;13.588;2023-12-28T13:49:16;9.96;83.67
68977;SHT31;56029;52.568;13.588;2023-12-28T13:51:41;10.00;83.79
68977;SHT31;56029;52.568;13.588;2023-12-28T13:54:07;10.01;83.88
68977;SHT31;56029;52.568;13.588;2023-12-28T13:56:32;10.08;83.53
68977;SHT31;56029;52.568;13.588;2023-12-28T13:58:58;10.06;83.62
68977;SHT31;56029;52.568;13.588;2023-12-28T14:01:23;10.03;83.75
68977;SHT31;56029;52.568;13.588;2023-12-28T14:03:49;10.04;83.59
68977;SHT31;56029;52.568;13.588;2023-12-28T14:06:15;10.01;83.53
68977;SHT31;56029;52.568;13.588;2023-12-28T14:08:40;10.04;83.35
68977;SHT31;56029;52.568;13.588;2023-12-28T14:11:09;10.03;83.66
68977;SHT31;56029;52.568;13.588;2023-12-28T14:13:34;10.01;83.67
68977;SHT31;56029;52.568;13.588;2023-12-28T14:16:00;9.96;84.19
68977;SHT31;56029;52.568;13.588;2023-12-28T14:18:25;9.96;84.11
68977;SHT31;56029;52.568;13.588;2023-12-28T14:20:51;9.91;84.35
68977;SHT31;56029;52.568;13.588;2023-12-28T14:23:17;9.96;83.89
68977;SHT31;56029;52.568;13.588;2023-12-28T14:25:43;9.90;84.17
68977;SHT31;56029;52.568;13.588;2023-12-28T14:28:09;9.83;84.46
68977;SHT31;56029;52.568;13.588;2023-12-28T14:30:35;9.72;84.35
68977;SHT31;56029;52.568;13.588;2023-12-28T14:33:01;9.67;84.62
68977;SHT31;56029;52.568;13.588;2023-12-28T14:35:27;9.56;84.89
68977;SHT31;56029;52.568;13.588;2023-12-28T14:37:52;9.49;85.19
68977;SHT31;56029;52.568;13.588;2023-12-28T14:40:18;9.46;85.04
68977;SHT31;56029;52.568;13.588;2023-12-28T14:42:43;9.40;85.46
68977;SHT31;56029;52.568;13.588;2023-12-28T14:45:09;9.40;85.22
68977;SHT31;56029;52.568;13.588;2023-12-28T14:47:35;9.36;85.67
68977;SHT31;56029;52.568;13.588;2023-12-28T14:50:00;9.27;85.64
68977;SHT31;56029;52.568;13.588;2023-12-28T14:52:27;9.25;85.85
68977;SHT31;56029;52.568;13.588;2023-12-28T14:54:52;9.22;85.90
68977;SHT31;56029;52.568;13.588;2023-12-28T14:57:18;9.27;85.92
68977;SHT31;56029;52.568;13.588;2023-12-28T14:59:43;9.29;85.65
68977;SHT31;56029;52.568;13.588;2023-12-28T15:02:09;9.31;85.50
68977;SHT31;56029;52.568;13.588;2023-12-28T15:04:34;9.31;85.62
68977;SHT31;56029;52.568;13.588;2023-12-28T15:07:00;9.24;85.86
68977;SHT31;56029;52.568;13.588;2023-12-28T15:09:26;9.27;85.98
68977;SHT31;56029;52.568;13.588;2023-12-28T15:11:52;9.28;85.51
68977;SHT31;56029;52.568;13.588;2023-12-28T15:14:17;9.31;85.48
68977;SHT31;56029;52.568;13.588;2023-12-28T15:16:43;9.35;85.00
68977;SHT31;56029;52.568;13.588;2023-12-28T15:19:12;9.25;85.50
68977;SHT31;56029;52.568;13.588;2023-12-28T15:21:38;9.18;85.76
68977;SHT31;56029;52.568;13.588;2023-12-28T15:24:06;9.11;85.98
68977;SHT31;56029;52.568;13.588;2023-12-28T15:26:32;9.04;86.49
68977;SHT31;56029;52.568;13.588;2023-12-28T15:28:58;9.08;86.14
68977;SHT31;56029;52.568;13.588;2023-12-28T15:31:23;9.01;86.19